createdAt,value
2016-12-19T00:00:56.215Z,-86
2016-12-19T00:01:56.308Z,-86
2016-12-19T00:02:56.239Z,-86
2016-12-19T00:03:56.200Z,-86
2016-12-19T00:04:56.466Z,-87
2016-12-19T00:05:56.253Z,-86
2016-12-19T00:06:56.131Z,-86
2016-12-19T00:07:56.140Z,-86
2016-12-19T00:08:56.225Z,-87
2016-12-19T00:09:56.275Z,-86
2016-12-19T00:10:56.258Z,-86
2016-12-19T00:11:56.492Z,-86
2016-12-19T00:12:56.198Z,-86
2016-12-19T00:13:56.159Z,-87
2016-12-19T00:14:56.222Z,-86
2016-12-19T00:15:56.274Z,-87
2016-12-19T00:16:56.369Z,-86
2016-12-19T00:17:56.283Z,-87
2016-12-19T00:18:56.291Z,-87
2016-12-19T00:19:56.306Z,-87
2016-12-19T00:20:56.297Z,-87
2016-12-19T00:21:56.262Z,-86
2016-12-19T00:22:56.295Z,-86
2016-12-19T00:23:56.378Z,-86
2016-12-19T00:24:56.442Z,-87
2016-12-19T00:25:56.376Z,-86
2016-12-19T00:26:56.240Z,-86
2016-12-19T00:27:56.446Z,-87
2016-12-19T00:28:56.267Z,-86
2016-12-19T00:29:56.382Z,-86
2016-12-19T00:30:56.210Z,-87
2016-12-19T00:31:56.267Z,-87
2016-12-19T00:32:56.348Z,-86
2016-12-19T00:33:56.337Z,-87
2016-12-19T00:34:56.403Z,-87
2016-12-19T00:35:56.330Z,-87
2016-12-19T00:36:56.429Z,-86
2016-12-19T00:37:56.345Z,-86
2016-12-19T00:38:56.404Z,-86
2016-12-19T00:39:56.241Z,-87
2016-12-19T00:40:56.427Z,-86
2016-12-19T00:41:56.287Z,-86
2016-12-19T00:42:56.358Z,-86
2016-12-19T00:43:56.564Z,-87
2016-12-19T00:44:56.290Z,-87
2016-12-19T00:45:56.356Z,-86
2016-12-19T00:46:56.240Z,-86
2016-12-19T00:47:56.360Z,-86
2016-12-19T00:48:56.446Z,-87
2016-12-19T00:49:56.261Z,-86
2016-12-19T00:50:56.321Z,-86
2016-12-19T00:51:56.325Z,-86
2016-12-19T00:52:56.390Z,-87
2016-12-19T00:53:56.335Z,-87
2016-12-19T00:54:56.358Z,-86
2016-12-19T00:55:56.392Z,-87
2016-12-19T00:56:56.295Z,-87
2016-12-19T00:57:56.384Z,-86
2016-12-19T00:58:56.345Z,-86
2016-12-19T00:59:56.486Z,-87
2016-12-19T01:00:56.474Z,-86
2016-12-19T01:01:56.483Z,-86
2016-12-19T01:02:56.351Z,-87
2016-12-19T01:03:56.388Z,-87
2016-12-19T01:04:56.484Z,-86
2016-12-19T01:05:56.373Z,-87
2016-12-19T01:06:56.418Z,-86
2016-12-19T01:07:56.381Z,-86
2016-12-19T01:08:56.492Z,-86
2016-12-19T01:09:56.382Z,-87
2016-12-19T01:10:56.388Z,-86
2016-12-19T01:11:56.441Z,-87
2016-12-19T01:12:56.349Z,-86
2016-12-19T01:13:56.445Z,-87
2016-12-19T01:14:56.445Z,-87
2016-12-19T01:15:56.575Z,-87
2016-12-19T01:16:56.415Z,-86
2016-12-19T01:17:56.503Z,-86
2016-12-19T01:18:56.415Z,-87
2016-12-19T01:19:56.510Z,-86
2016-12-19T01:20:56.362Z,-86
2016-12-19T01:21:56.445Z,-87
2016-12-19T01:22:56.408Z,-87
2016-12-19T01:23:56.432Z,-87
2016-12-19T01:24:56.465Z,-86
2016-12-19T01:25:56.426Z,-86
2016-12-19T01:26:56.475Z,-86
2016-12-19T01:27:56.416Z,-86
2016-12-19T01:28:56.435Z,-86
2016-12-19T01:29:56.488Z,-87
2016-12-19T01:30:56.471Z,-87
2016-12-19T01:31:56.601Z,-87
2016-12-19T01:32:56.458Z,-86
2016-12-19T01:33:56.493Z,-86
2016-12-19T01:34:56.502Z,-87
2016-12-19T01:35:56.493Z,-86
2016-12-19T01:36:56.507Z,-87
2016-12-19T01:37:56.451Z,-87
2016-12-19T01:38:56.497Z,-86
2016-12-19T01:39:56.454Z,-87
2016-12-19T01:40:56.469Z,-86
2016-12-19T01:41:56.478Z,-87
2016-12-19T01:42:56.614Z,-86
2016-12-19T01:43:56.542Z,-87
2016-12-19T01:44:56.592Z,-86
2016-12-19T01:45:56.461Z,-87
2016-12-19T01:46:56.475Z,-87
2016-12-19T01:47:56.461Z,-86
2016-12-19T01:48:56.600Z,-87
2016-12-19T01:49:56.412Z,-87
2016-12-19T01:50:56.425Z,-86
2016-12-19T01:51:56.512Z,-87
2016-12-19T01:52:56.499Z,-86
2016-12-19T01:53:56.486Z,-86
2016-12-19T01:54:56.559Z,-86
2016-12-19T01:55:56.564Z,-86
2016-12-19T01:56:56.526Z,-86
2016-12-19T01:57:56.564Z,-86
2016-12-19T01:58:56.570Z,-87
2016-12-19T01:59:56.565Z,-86
2016-12-19T02:00:56.575Z,-86
2016-12-19T02:01:56.593Z,-87
2016-12-19T02:02:56.558Z,-86
2016-12-19T02:03:56.625Z,-86
2016-12-19T02:04:56.634Z,-86
2016-12-19T02:05:56.516Z,-87
2016-12-19T02:06:56.705Z,-86
2016-12-19T02:07:56.566Z,-86
2016-12-19T02:08:56.674Z,-86
2016-12-19T02:09:56.515Z,-87
2016-12-19T02:10:56.554Z,-87
2016-12-19T02:11:56.599Z,-87
2016-12-19T02:12:56.492Z,-86
2016-12-19T02:13:56.684Z,-87
2016-12-19T02:14:56.618Z,-86
2016-12-19T02:15:56.613Z,-87
2016-12-19T02:16:56.556Z,-86
2016-12-19T02:17:56.746Z,-87
2016-12-19T02:18:56.510Z,-87
2016-12-19T02:19:56.718Z,-87
2016-12-19T02:20:56.632Z,-86
2016-12-19T02:21:56.566Z,-87
2016-12-19T02:22:56.694Z,-87
2016-12-19T02:23:56.518Z,-87
2016-12-19T02:24:56.598Z,-86
2016-12-19T02:25:56.596Z,-86
2016-12-19T02:26:56.652Z,-86
2016-12-19T02:27:56.656Z,-86
2016-12-19T02:28:56.596Z,-87
2016-12-19T02:29:56.606Z,-87
2016-12-19T02:30:56.589Z,-86
2016-12-19T02:31:56.596Z,-87
2016-12-19T02:32:56.525Z,-86
2016-12-19T02:33:56.550Z,-87
2016-12-19T02:34:56.655Z,-86
2016-12-19T02:35:56.703Z,-86
2016-12-19T02:36:56.635Z,-86
2016-12-19T02:37:56.613Z,-87
2016-12-19T02:38:56.631Z,-87
2016-12-19T02:39:56.614Z,-86
2016-12-19T02:40:56.689Z,-87
2016-12-19T02:41:56.557Z,-86
2016-12-19T02:42:56.633Z,-87
2016-12-19T02:43:56.640Z,-86
2016-12-19T02:44:56.689Z,-87
2016-12-19T02:45:56.672Z,-86
2016-12-19T02:46:56.715Z,-87
2016-12-19T02:47:56.637Z,-86
2016-12-19T02:48:56.692Z,-86
2016-12-19T02:49:56.754Z,-87
2016-12-19T02:50:56.742Z,-86
2016-12-19T02:51:56.786Z,-86
2016-12-19T02:52:56.735Z,-86
2016-12-19T02:53:56.662Z,-86
2016-12-19T02:54:56.591Z,-86
2016-12-19T02:55:56.790Z,-87
2016-12-19T02:56:56.795Z,-86
2016-12-19T02:57:56.803Z,-86
2016-12-19T02:58:56.921Z,-86
2016-12-19T02:59:56.619Z,-86
2016-12-19T03:00:56.755Z,-86
2016-12-19T03:01:56.819Z,-86
2016-12-19T03:02:56.729Z,-86
2016-12-19T03:03:56.709Z,-86
2016-12-19T03:04:56.771Z,-86
2016-12-19T03:05:56.705Z,-86
2016-12-19T03:06:56.655Z,-87
2016-12-19T03:07:56.746Z,-87
2016-12-19T03:08:56.881Z,-86
2016-12-19T03:09:56.831Z,-86
2016-12-19T03:10:56.785Z,-86
2016-12-19T03:11:56.831Z,-86
2016-12-19T03:12:56.746Z,-87
2016-12-19T03:13:56.705Z,-86
2016-12-19T03:14:56.778Z,-86
2016-12-19T03:15:56.836Z,-86
2016-12-19T03:16:56.833Z,-86
2016-12-19T03:17:56.827Z,-86
2016-12-19T03:18:56.716Z,-86
2016-12-19T03:19:56.794Z,-86
2016-12-19T03:20:56.748Z,-86
2016-12-19T03:21:56.809Z,-86
2016-12-19T03:22:56.801Z,-86
2016-12-19T03:23:56.786Z,-86
2016-12-19T03:24:56.821Z,-86
2016-12-19T03:25:56.756Z,-86
2016-12-19T03:26:56.844Z,-87
2016-12-19T03:27:56.847Z,-86
2016-12-19T03:28:56.735Z,-86
2016-12-19T03:29:56.788Z,-86
2016-12-19T03:30:56.851Z,-86
2016-12-19T03:31:56.785Z,-87
2016-12-19T03:32:56.805Z,-87
2016-12-19T03:33:56.897Z,-86
2016-12-19T03:34:56.765Z,-86
2016-12-19T03:35:56.737Z,-86
2016-12-19T03:36:56.846Z,-86
2016-12-19T03:37:56.788Z,-86
2016-12-19T03:38:56.838Z,-86
2016-12-19T03:39:56.864Z,-86
2016-12-19T03:40:56.847Z,-86
2016-12-19T03:41:56.877Z,-86
2016-12-19T03:42:56.874Z,-86
2016-12-19T03:43:56.808Z,-86
2016-12-19T03:44:56.819Z,-87
2016-12-19T03:45:56.885Z,-86
2016-12-19T03:46:56.730Z,-86
2016-12-19T03:47:56.888Z,-87
2016-12-19T03:48:56.902Z,-86
2016-12-19T03:49:56.881Z,-86
2016-12-19T03:50:56.838Z,-86
2016-12-19T03:51:56.777Z,-86
2016-12-19T03:52:56.952Z,-87
2016-12-19T03:53:56.753Z,-87
2016-12-19T03:54:56.957Z,-86
2016-12-19T03:55:56.855Z,-86
2016-12-19T03:56:56.827Z,-86
2016-12-19T03:57:56.894Z,-86
2016-12-19T03:58:56.902Z,-86
2016-12-19T03:59:56.845Z,-87
2016-12-19T04:00:56.969Z,-86
2016-12-19T04:01:56.960Z,-86
2016-12-19T04:02:56.873Z,-87
2016-12-19T04:03:56.853Z,-87
2016-12-19T04:04:56.861Z,-86
2016-12-19T04:05:56.941Z,-86
2016-12-19T04:06:56.912Z,-86
2016-12-19T04:07:56.806Z,-86
2016-12-19T04:08:57.032Z,-86
2016-12-19T04:09:56.867Z,-86
2016-12-19T04:10:56.990Z,-86
2016-12-19T04:11:56.867Z,-86
2016-12-19T04:12:56.807Z,-86
2016-12-19T04:13:56.955Z,-86
2016-12-19T04:14:56.870Z,-86
2016-12-19T04:15:56.819Z,-86
2016-12-19T04:16:56.854Z,-87
2016-12-19T04:17:56.842Z,-86
2016-12-19T04:18:57.008Z,-86
2016-12-19T04:19:56.949Z,-86
2016-12-19T04:20:56.902Z,-86
2016-12-19T04:21:56.868Z,-86
2016-12-19T04:22:56.866Z,-86
2016-12-19T04:23:57.031Z,-87
2016-12-19T04:24:56.988Z,-86
2016-12-19T04:25:56.857Z,-86
2016-12-19T04:26:57.058Z,-86
2016-12-19T04:27:57.032Z,-86
2016-12-19T04:28:57.063Z,-86
2016-12-19T04:29:56.930Z,-86
2016-12-19T04:30:57.026Z,-86
2016-12-19T04:31:56.969Z,-86
2016-12-19T04:32:56.890Z,-86
2016-12-19T04:33:56.877Z,-87
2016-12-19T04:34:57.011Z,-87
2016-12-19T04:35:56.992Z,-86
2016-12-19T04:36:56.991Z,-86
2016-12-19T04:37:57.027Z,-86
2016-12-19T04:38:56.959Z,-86
2016-12-19T04:39:57.020Z,-86
2016-12-19T04:40:56.956Z,-86
2016-12-19T04:41:57.054Z,-86
2016-12-19T04:42:56.960Z,-86
2016-12-19T04:43:57.096Z,-86
2016-12-19T04:44:56.953Z,-86
2016-12-19T04:45:57.004Z,-86
2016-12-19T04:46:57.038Z,-86
2016-12-19T04:47:57.033Z,-86
2016-12-19T04:48:56.990Z,-86
2016-12-19T04:49:57.039Z,-86
2016-12-19T04:50:57.055Z,-86
2016-12-19T04:51:56.981Z,-86
2016-12-19T04:52:56.985Z,-86
2016-12-19T04:53:57.084Z,-86
2016-12-19T04:54:56.936Z,-86
2016-12-19T04:55:57.001Z,-85
2016-12-19T04:56:57.052Z,-86
2016-12-19T04:57:57.008Z,-86
2016-12-19T04:58:57.001Z,-86
2016-12-19T04:59:57.134Z,-86
2016-12-19T05:00:57.136Z,-86
2016-12-19T05:01:57.010Z,-86
2016-12-19T05:02:57.198Z,-86
2016-12-19T05:03:57.094Z,-86
2016-12-19T05:04:57.038Z,-86
2016-12-19T05:05:57.006Z,-86
2016-12-19T05:06:56.972Z,-86
2016-12-19T05:07:57.010Z,-86
2016-12-19T05:08:57.103Z,-86
2016-12-19T05:09:56.990Z,-86
2016-12-19T05:10:57.033Z,-86
2016-12-19T05:11:57.043Z,-86
2016-12-19T05:12:57.106Z,-86
2016-12-19T05:13:57.036Z,-86
2016-12-19T05:14:57.050Z,-86
2016-12-19T05:15:57.101Z,-86
2016-12-19T05:16:57.173Z,-86
2016-12-19T05:17:57.082Z,-86
2016-12-19T05:18:57.178Z,-86
2016-12-19T05:19:57.080Z,-86
2016-12-19T05:20:57.201Z,-86
2016-12-19T05:21:57.151Z,-86
2016-12-19T05:22:57.153Z,-86
2016-12-19T05:23:57.009Z,-86
2016-12-19T05:24:57.137Z,-86
2016-12-19T05:25:57.109Z,-86
2016-12-19T05:26:57.200Z,-86
2016-12-19T05:27:57.090Z,-86
2016-12-19T05:28:57.160Z,-87
2016-12-19T05:29:57.091Z,-86
2016-12-19T05:30:57.287Z,-86
2016-12-19T05:31:57.187Z,-86
2016-12-19T05:32:57.090Z,-86
2016-12-19T05:33:57.038Z,-86
2016-12-19T05:34:57.110Z,-87
2016-12-19T05:35:57.252Z,-86
2016-12-19T05:36:57.141Z,-86
2016-12-19T05:37:57.120Z,-86
2016-12-19T05:38:57.147Z,-86
2016-12-19T05:39:57.183Z,-86
2016-12-19T05:40:57.148Z,-86
2016-12-19T05:41:57.338Z,-86
2016-12-19T05:42:57.201Z,-86
2016-12-19T05:43:57.131Z,-86
2016-12-19T05:44:57.210Z,-86
2016-12-19T05:45:57.144Z,-86
2016-12-19T05:46:57.195Z,-86
2016-12-19T05:47:57.252Z,-86
2016-12-19T05:48:57.201Z,-86
2016-12-19T05:49:57.153Z,-86
2016-12-19T05:50:57.295Z,-86
2016-12-19T05:51:57.203Z,-86
2016-12-19T05:52:57.317Z,-86
2016-12-19T05:53:57.235Z,-86
2016-12-19T05:54:57.278Z,-86
2016-12-19T05:55:57.180Z,-86
2016-12-19T05:56:57.167Z,-86
2016-12-19T05:57:57.244Z,-86
2016-12-19T05:58:57.170Z,-86
2016-12-19T05:59:57.170Z,-87
2016-12-19T06:00:57.228Z,-86
2016-12-19T06:01:57.146Z,-86
2016-12-19T06:02:57.199Z,-86
2016-12-19T06:03:57.275Z,-86
2016-12-19T06:04:57.380Z,-86
2016-12-19T06:05:57.181Z,-86
2016-12-19T06:06:57.252Z,-86
2016-12-19T06:07:57.312Z,-86
2016-12-19T06:08:57.295Z,-87
2016-12-19T06:09:57.189Z,-86
2016-12-19T06:10:57.206Z,-86
2016-12-19T06:11:57.272Z,-86
2016-12-19T06:12:57.275Z,-86
2016-12-19T06:13:57.247Z,-86
2016-12-19T06:14:57.220Z,-86
2016-12-19T06:15:57.387Z,-86
2016-12-19T06:16:57.204Z,-86
2016-12-19T06:17:57.279Z,-86
2016-12-19T06:18:57.223Z,-86
2016-12-19T06:19:57.331Z,-86
2016-12-19T06:20:57.196Z,-86
2016-12-19T06:21:57.297Z,-86
2016-12-19T06:22:57.341Z,-87
2016-12-19T06:23:57.183Z,-86
2016-12-19T06:24:57.194Z,-86
2016-12-19T06:25:57.253Z,-86
2016-12-19T06:26:57.273Z,-86
2016-12-19T06:27:57.321Z,-86
2016-12-19T06:28:57.204Z,-86
2016-12-19T06:29:57.266Z,-86
2016-12-19T06:30:57.193Z,-86
2016-12-19T06:31:57.369Z,-86
2016-12-19T06:32:57.346Z,-86
2016-12-19T06:33:57.279Z,-86
2016-12-19T06:34:57.328Z,-86
2016-12-19T06:35:57.580Z,-87
2016-12-19T06:36:57.220Z,-86
2016-12-19T06:37:57.276Z,-86
2016-12-19T06:38:57.348Z,-86
2016-12-19T06:39:57.388Z,-86
2016-12-19T06:40:57.376Z,-87
2016-12-19T06:41:57.293Z,-86
2016-12-19T06:42:57.387Z,-86
2016-12-19T06:43:57.491Z,-86
2016-12-19T06:44:57.363Z,-86
2016-12-19T06:45:57.365Z,-86
2016-12-19T06:46:57.359Z,-86
2016-12-19T06:47:57.329Z,-86
2016-12-19T06:48:57.311Z,-86
2016-12-19T06:49:57.381Z,-86
2016-12-19T06:50:57.404Z,-86
2016-12-19T06:51:57.401Z,-87
2016-12-19T06:52:57.409Z,-86
2016-12-19T06:53:57.451Z,-86
2016-12-19T06:54:57.416Z,-86
2016-12-19T06:55:57.283Z,-86
2016-12-19T06:56:57.347Z,-86
2016-12-19T06:57:57.481Z,-86
2016-12-19T06:58:57.340Z,-86
2016-12-19T06:59:57.338Z,-87
2016-12-19T07:00:57.352Z,-86
2016-12-19T07:01:57.428Z,-86
2016-12-19T07:02:57.422Z,-86
2016-12-19T07:03:58.664Z,-87
2016-12-19T07:04:57.476Z,-86
2016-12-19T07:05:57.484Z,-86
2016-12-19T07:06:57.513Z,-86
2016-12-19T07:07:57.414Z,-86
2016-12-19T07:08:57.369Z,-88
2016-12-19T07:09:57.367Z,-87
2016-12-19T07:10:57.380Z,-87
2016-12-19T07:11:57.461Z,-87
2016-12-19T07:12:57.594Z,-87
2016-12-19T07:13:57.439Z,-88
2016-12-19T07:14:57.485Z,-87
2016-12-19T07:15:57.388Z,-88
2016-12-19T07:16:57.316Z,-88
2016-12-19T07:17:57.412Z,-87
2016-12-19T07:18:57.486Z,-87
2016-12-19T07:19:57.458Z,-88
2016-12-19T07:20:57.397Z,-87
2016-12-19T07:21:57.411Z,-87
2016-12-19T07:22:57.492Z,-87
2016-12-19T07:23:57.459Z,-88
2016-12-19T07:24:57.482Z,-87
2016-12-19T07:25:57.352Z,-88
2016-12-19T07:26:57.469Z,-87
2016-12-19T07:27:57.480Z,-88
2016-12-19T07:28:57.453Z,-87
2016-12-19T07:29:57.585Z,-88
2016-12-19T07:30:57.428Z,-88
2016-12-19T07:31:57.417Z,-88
2016-12-19T07:32:57.455Z,-88
2016-12-19T07:33:57.377Z,-88
2016-12-19T07:34:57.568Z,-87
2016-12-19T07:35:57.680Z,-87
2016-12-19T07:36:57.617Z,-87
2016-12-19T07:37:57.583Z,-87
2016-12-19T07:38:58.117Z,-87
2016-12-19T07:39:57.568Z,-87
2016-12-19T07:40:57.444Z,-87
2016-12-19T07:41:57.465Z,-87
2016-12-19T07:42:57.467Z,-87
2016-12-19T07:43:57.408Z,-87
2016-12-19T07:44:57.491Z,-87
2016-12-19T07:45:57.671Z,-87
2016-12-19T07:46:57.491Z,-87
2016-12-19T07:47:57.458Z,-88
2016-12-19T07:48:57.611Z,-87
2016-12-19T07:49:57.502Z,-87
2016-12-19T07:50:57.485Z,-88
2016-12-19T07:51:57.444Z,-87
2016-12-19T07:52:57.488Z,-87
2016-12-19T07:53:57.544Z,-88
2016-12-19T07:54:57.544Z,-87
2016-12-19T07:55:57.536Z,-87
2016-12-19T07:56:57.499Z,-87
2016-12-19T07:57:57.559Z,-88
2016-12-19T07:58:57.530Z,-88
2016-12-19T07:59:57.568Z,-87
2016-12-19T08:00:57.556Z,-88
2016-12-19T08:01:57.517Z,-88
2016-12-19T08:02:57.519Z,-88
2016-12-19T08:03:57.510Z,-89
2016-12-19T08:04:57.633Z,-87
2016-12-19T08:05:57.476Z,-88
2016-12-19T08:06:57.653Z,-88
2016-12-19T08:07:57.554Z,-87
2016-12-19T08:08:57.638Z,-87
2016-12-19T08:09:57.602Z,-88
2016-12-19T08:10:57.534Z,-91
2016-12-19T08:11:57.608Z,-91
2016-12-19T08:12:57.598Z,-89
2016-12-19T08:13:57.624Z,-91
2016-12-19T08:14:57.671Z,-91
2016-12-19T08:15:57.580Z,-90
2016-12-19T08:16:57.752Z,-91
2016-12-19T08:17:57.608Z,-90
2016-12-19T08:18:57.617Z,-90
2016-12-19T08:19:57.772Z,-91
2016-12-19T08:20:57.732Z,-90
2016-12-19T08:21:57.650Z,-90
2016-12-19T08:22:57.559Z,-90
2016-12-19T08:23:57.616Z,-91
2016-12-19T08:24:57.574Z,-90
2016-12-19T08:25:57.597Z,-90
2016-12-19T08:26:57.737Z,-89
2016-12-19T08:27:57.747Z,-90
2016-12-19T08:28:57.594Z,-89
2016-12-19T08:29:57.721Z,-89
2016-12-19T08:30:57.687Z,-89
2016-12-19T08:31:57.619Z,-90
2016-12-19T08:32:57.612Z,-89
2016-12-19T08:33:57.743Z,-89
2016-12-19T08:34:57.611Z,-90
2016-12-19T08:35:57.708Z,-89
2016-12-19T08:36:57.621Z,-89
2016-12-19T08:37:57.847Z,-89
2016-12-19T08:38:57.714Z,-90
2016-12-19T08:39:57.729Z,-89
2016-12-19T08:40:57.684Z,-91
2016-12-19T08:41:57.581Z,-89
2016-12-19T08:42:57.702Z,-90
2016-12-19T08:43:57.825Z,-89
2016-12-19T08:44:57.630Z,-91
2016-12-19T08:45:57.648Z,-89
2016-12-19T08:46:57.664Z,-90
2016-12-19T08:47:57.789Z,-88
2016-12-19T08:48:57.714Z,-87
2016-12-19T08:49:57.645Z,-88
2016-12-19T08:50:57.706Z,-89
2016-12-19T08:51:57.726Z,-89
2016-12-19T08:52:57.703Z,-89
2016-12-19T08:53:57.671Z,-89
2016-12-19T08:54:57.729Z,-88
2016-12-19T08:55:57.708Z,-96
2016-12-19T08:56:57.602Z,-96
2016-12-19T08:57:58.657Z,-96
2016-12-19T08:58:57.700Z,-94
2016-12-19T08:59:57.887Z,-96
2016-12-19T09:00:57.834Z,-94
2016-12-19T09:01:57.766Z,-89
2016-12-19T09:02:57.695Z,-95
2016-12-19T09:03:57.748Z,-96
2016-12-19T09:04:58.136Z,-96
2016-12-19T09:05:57.862Z,-96
2016-12-19T09:06:57.820Z,-96
2016-12-19T09:07:57.787Z,-84
2016-12-19T09:08:57.724Z,-85
2016-12-19T09:09:59.890Z,-85
2016-12-19T09:10:57.884Z,-96
2016-12-19T09:11:58.407Z,-90
2016-12-19T09:12:57.766Z,-96
2016-12-19T09:13:57.885Z,-95
2016-12-19T09:14:58.490Z,-86
2016-12-19T09:15:57.790Z,-94
2016-12-19T09:16:57.695Z,-96
2016-12-19T09:22:05.798Z,-93
2016-12-19T09:22:57.894Z,-90
2016-12-19T09:23:57.796Z,-91
2016-12-19T09:24:57.729Z,-89
2016-12-19T09:25:57.927Z,-89
2016-12-19T09:26:57.900Z,-89
2016-12-19T09:27:57.882Z,-90
2016-12-19T09:28:57.922Z,-90
2016-12-19T09:29:57.840Z,-90
2016-12-19T09:30:57.999Z,-90
2016-12-19T09:31:57.971Z,-90
2016-12-19T09:32:57.817Z,-89
2016-12-19T09:33:57.754Z,-90
2016-12-19T09:34:57.805Z,-90
2016-12-19T09:35:57.896Z,-90
2016-12-19T09:36:57.867Z,-90
2016-12-19T09:37:57.863Z,-90
2016-12-19T09:38:57.897Z,-91
2016-12-19T09:39:58.150Z,-90
2016-12-19T09:40:57.926Z,-91
2016-12-19T09:41:57.876Z,-90
2016-12-19T09:42:57.994Z,-90
2016-12-19T09:43:57.909Z,-90
2016-12-19T09:44:57.988Z,-89
2016-12-19T09:45:57.984Z,-90
2016-12-19T09:46:57.879Z,-90
2016-12-19T09:47:58.246Z,-92
2016-12-19T09:48:58.131Z,-90
2016-12-19T09:49:58.034Z,-91
2016-12-19T09:50:58.017Z,-90
2016-12-19T09:51:57.978Z,-89
2016-12-19T09:52:57.930Z,-89
2016-12-19T09:53:57.911Z,-90
2016-12-19T09:54:57.943Z,-88
2016-12-19T09:55:57.946Z,-88
2016-12-19T09:56:57.954Z,-89
2016-12-19T09:57:57.989Z,-90
2016-12-19T09:58:57.956Z,-89
2016-12-19T09:59:58.007Z,-89
2016-12-19T10:00:57.867Z,-90
2016-12-19T10:01:57.881Z,-89
2016-12-19T10:02:57.879Z,-89
2016-12-19T10:03:57.991Z,-89
2016-12-19T10:04:57.923Z,-89
2016-12-19T10:05:57.983Z,-90
2016-12-19T10:06:59.109Z,-88
2016-12-19T10:07:58.327Z,-89
2016-12-19T10:08:57.894Z,-89
2016-12-19T10:09:58.004Z,-88
2016-12-19T10:10:57.896Z,-89
2016-12-19T10:11:58.167Z,-88
2016-12-19T10:12:58.022Z,-88
2016-12-19T10:13:57.873Z,-89
2016-12-19T10:14:58.069Z,-89
2016-12-19T10:15:58.086Z,-88
2016-12-19T10:16:57.908Z,-88
2016-12-19T10:17:57.942Z,-88
2016-12-19T10:18:58.004Z,-88
2016-12-19T10:19:58.094Z,-89
2016-12-19T10:20:57.982Z,-88
2016-12-19T10:21:58.343Z,-89
2016-12-19T10:22:57.968Z,-89
2016-12-19T10:23:58.073Z,-88
2016-12-19T10:24:58.028Z,-89
2016-12-19T10:25:58.054Z,-88
2016-12-19T10:26:57.955Z,-88
2016-12-19T10:27:58.032Z,-88
2016-12-19T10:28:58.029Z,-88
2016-12-19T10:29:58.195Z,-88
2016-12-19T10:30:58.033Z,-87
2016-12-19T10:31:58.721Z,-88
2016-12-19T10:32:58.179Z,-89
2016-12-19T10:33:57.983Z,-88
2016-12-19T10:34:58.109Z,-88
2016-12-19T10:35:58.001Z,-88
2016-12-19T10:36:57.958Z,-88
2016-12-19T10:37:58.202Z,-88
2016-12-19T10:38:57.970Z,-87
2016-12-19T10:39:59.191Z,-88
2016-12-19T10:40:58.005Z,-88
2016-12-19T10:41:58.250Z,-88
2016-12-19T10:42:58.289Z,-88
2016-12-19T10:43:58.307Z,-88
2016-12-19T10:44:58.196Z,-88
2016-12-19T10:45:58.158Z,-88
2016-12-19T10:46:58.363Z,-88
2016-12-19T10:47:58.004Z,-88
2016-12-19T10:48:58.015Z,-87
2016-12-19T10:49:58.195Z,-87
2016-12-19T10:50:58.234Z,-89
2016-12-19T10:51:58.203Z,-88
2016-12-19T10:52:58.421Z,-88
2016-12-19T10:53:58.099Z,-88
2016-12-19T10:54:59.115Z,-89
2016-12-19T10:55:58.211Z,-88
2016-12-19T10:56:58.127Z,-88
2016-12-19T10:57:58.131Z,-88
2016-12-19T10:58:58.372Z,-88
2016-12-19T10:59:58.084Z,-87
2016-12-19T11:00:58.183Z,-88
2016-12-19T11:01:58.213Z,-88
2016-12-19T11:02:58.087Z,-89
2016-12-19T11:03:58.113Z,-89
2016-12-19T11:04:58.118Z,-88
2016-12-19T11:05:58.141Z,-88
2016-12-19T11:06:58.254Z,-88
2016-12-19T11:07:58.340Z,-88
2016-12-19T11:08:58.099Z,-87
2016-12-19T11:09:58.068Z,-87
2016-12-19T11:10:58.219Z,-87
2016-12-19T11:11:58.196Z,-87
2016-12-19T11:12:58.137Z,-88
2016-12-19T11:13:58.161Z,-86
2016-12-19T11:14:58.222Z,-88
2016-12-19T11:15:58.159Z,-87
2016-12-19T11:16:59.374Z,-88
2016-12-19T11:17:58.122Z,-87
2016-12-19T11:18:58.221Z,-87
2016-12-19T11:19:58.215Z,-86
2016-12-19T11:20:58.092Z,-88
2016-12-19T11:21:58.141Z,-88
2016-12-19T11:22:58.295Z,-88
2016-12-19T11:23:58.236Z,-88
2016-12-19T11:24:58.314Z,-88
2016-12-19T11:25:58.107Z,-88
2016-12-19T11:26:58.268Z,-88
2016-12-19T11:27:58.540Z,-88
2016-12-19T11:28:58.210Z,-89
2016-12-19T11:29:58.382Z,-88
2016-12-19T11:30:58.220Z,-89
2016-12-19T11:31:58.222Z,-88
2016-12-19T11:32:58.385Z,-88
2016-12-19T11:33:58.079Z,-88
2016-12-19T11:34:58.308Z,-88
2016-12-19T11:35:58.280Z,-88
2016-12-19T11:36:58.191Z,-88
2016-12-19T11:37:59.420Z,-88
2016-12-19T11:38:58.184Z,-88
2016-12-19T11:39:58.135Z,-87
2016-12-19T11:40:58.279Z,-88
2016-12-19T11:41:58.178Z,-88
2016-12-19T11:42:58.199Z,-87
2016-12-19T11:43:58.234Z,-88
2016-12-19T11:44:58.626Z,-89
2016-12-19T11:45:58.555Z,-88
2016-12-19T11:46:58.161Z,-88
2016-12-19T11:47:58.262Z,-88
2016-12-19T11:48:58.327Z,-88
2016-12-19T11:49:58.483Z,-88
2016-12-19T11:50:58.431Z,-89
2016-12-19T11:51:58.346Z,-88
2016-12-19T11:52:58.370Z,-89
2016-12-19T11:53:58.570Z,-88
2016-12-19T11:55:06.503Z,-89
2016-12-19T11:55:58.234Z,-89
2016-12-19T11:56:58.236Z,-88
2016-12-19T11:57:58.324Z,-89
2016-12-19T11:58:58.340Z,-89
2016-12-19T11:59:58.329Z,-89
2016-12-19T12:00:58.236Z,-88
2016-12-19T12:01:58.801Z,-89
2016-12-19T12:02:58.293Z,-87
2016-12-19T12:03:58.157Z,-88
2016-12-19T12:04:58.376Z,-89
2016-12-19T12:05:58.283Z,-88
2016-12-19T12:06:58.270Z,-88
2016-12-19T12:07:58.322Z,-88
2016-12-19T12:08:58.365Z,-88
2016-12-19T12:09:58.494Z,-88
2016-12-19T12:10:58.345Z,-88
2016-12-19T12:11:58.293Z,-89
2016-12-19T12:12:58.377Z,-88
2016-12-19T12:13:58.455Z,-88
2016-12-19T12:14:58.335Z,-88
2016-12-19T12:15:58.449Z,-88
2016-12-19T12:16:58.309Z,-89
2016-12-19T12:17:58.243Z,-89
2016-12-19T12:18:58.198Z,-88
2016-12-19T12:19:58.265Z,-88
2016-12-19T12:20:58.443Z,-89
2016-12-19T12:21:58.427Z,-89
2016-12-19T12:22:58.427Z,-88
2016-12-19T12:23:58.653Z,-88
2016-12-19T12:24:58.342Z,-88
2016-12-19T12:25:58.290Z,-88
2016-12-19T12:26:58.528Z,-88
2016-12-19T12:28:08.716Z,-89
2016-12-19T12:28:58.355Z,-89
2016-12-19T12:30:00.204Z,-89
2016-12-19T12:30:58.356Z,-88
2016-12-19T12:31:58.332Z,-88
2016-12-19T12:32:58.402Z,-88
2016-12-19T12:33:58.309Z,-88
2016-12-19T12:34:58.478Z,-88
2016-12-19T12:35:58.293Z,-88
2016-12-19T12:36:58.423Z,-88
2016-12-19T12:38:03.032Z,-88
2016-12-19T12:38:58.465Z,-88
2016-12-19T12:39:58.368Z,-88
2016-12-19T12:40:58.387Z,-89
2016-12-19T12:41:58.401Z,-89
2016-12-19T12:42:58.339Z,-88
2016-12-19T12:43:58.496Z,-89
2016-12-19T12:44:58.473Z,-88
2016-12-19T12:45:58.362Z,-90
2016-12-19T12:47:03.709Z,-88
2016-12-19T12:47:58.428Z,-89
2016-12-19T12:48:58.547Z,-89
2016-12-19T12:49:58.454Z,-90
2016-12-19T12:50:58.447Z,-89
2016-12-19T12:51:58.450Z,-90
2016-12-19T12:52:58.548Z,-90
2016-12-19T12:53:58.354Z,-90
2016-12-19T12:54:58.650Z,-90
2016-12-19T12:55:58.476Z,-88
2016-12-19T12:56:58.647Z,-89
2016-12-19T12:57:58.471Z,-89
2016-12-19T12:58:58.868Z,-89
2016-12-19T12:59:58.380Z,-88
2016-12-19T13:00:58.653Z,-89
2016-12-19T13:01:58.574Z,-89
2016-12-19T13:02:58.700Z,-89
2016-12-19T13:03:58.493Z,-89
2016-12-19T13:04:58.417Z,-88
2016-12-19T13:05:58.435Z,-90
2016-12-19T13:06:58.463Z,-89
2016-12-19T13:07:58.538Z,-90
2016-12-19T13:08:58.494Z,-91
2016-12-19T13:09:58.433Z,-90
2016-12-19T13:10:58.357Z,-90
2016-12-19T13:11:58.755Z,-90
2016-12-19T13:12:58.518Z,-90
2016-12-19T13:13:58.488Z,-90
2016-12-19T13:14:58.784Z,-90
2016-12-19T13:15:58.608Z,-89
2016-12-19T13:16:58.636Z,-88
2016-12-19T13:17:58.520Z,-88
2016-12-19T13:18:58.582Z,-89
2016-12-19T13:19:58.590Z,-89
2016-12-19T13:20:58.436Z,-89
2016-12-19T13:21:58.648Z,-90
2016-12-19T13:22:58.530Z,-89
2016-12-19T13:23:58.536Z,-89
2016-12-19T13:24:58.729Z,-89
2016-12-19T13:25:58.502Z,-89
2016-12-19T13:26:58.592Z,-89
2016-12-19T13:27:58.660Z,-89
2016-12-19T13:28:58.531Z,-88
2016-12-19T13:30:00.131Z,-90
2016-12-19T13:30:58.936Z,-89
2016-12-19T13:31:58.947Z,-89
2016-12-19T13:32:58.555Z,-89
2016-12-19T13:33:58.563Z,-88
2016-12-19T13:34:58.615Z,-88
2016-12-19T13:35:58.571Z,-89
2016-12-19T13:36:58.618Z,-89
2016-12-19T13:37:58.692Z,-88
2016-12-19T13:38:58.737Z,-88
2016-12-19T13:39:58.735Z,-88
2016-12-19T13:40:58.506Z,-88
2016-12-19T13:41:58.523Z,-89
2016-12-19T13:42:58.716Z,-88
2016-12-19T13:43:58.607Z,-89
2016-12-19T13:44:58.756Z,-89
2016-12-19T13:45:58.710Z,-89
2016-12-19T13:46:58.523Z,-88
2016-12-19T13:47:58.596Z,-88
2016-12-19T13:48:58.536Z,-89
2016-12-19T13:49:58.633Z,-88
2016-12-19T13:50:58.553Z,-89